Scottish Airport Reports

Civil airfields updated at H+20 and H+50
RAF airfields updated at H+50 only

EGPD - Aberdeen
Distance from station: NNE 19mi, 31km
Updated: 06/12/2019 12:20
Light rain, Mostly cloudy
Light rain, Mostly cloudy
 Wind from W
Wind: W 13 mph , 20 km/h
Temperature: 10°C
Wind Chill: 7°C
Dew Point: 7°C
Humidity: 82%
Barometer: 989 hPa
Summary: Light rain
Clouds: Mostly cloudy
Visibility: 6 miles , 10 km
Cloud details: Partly cloudy 4000 ft
Mostly cloudy 4700 ft
2019/12/06 12:20 EGPD 061220Z AUTO 27011KT 9999 -RA SCT040 BKN047 10/07 Q0989 NOSIG
EGPN - Dundee
Distance from station: SW 41mi, 66km
Updated: 06/12/2019 12:20
Few Clouds
Few Clouds
 Wind from W
Wind: W 13 mph , 20 km/h
Temperature: 9°C
Wind Chill: 6°C
Dew Point: 7°C
Humidity: 87%
Barometer: 990 hPa
Clouds: Few Clouds
Visibility: 6 miles , 10 km
Cloud details: Few Clouds 2000 ft
2019/12/06 12:20 EGPN 061220Z 27011KT 9999 FEW020 09/07 Q0990
 
EGQS - RAF Lossiemouth
Distance from station: NNW 63mi, 102km
Updated: 06/12/2019 12:19
Mostly cloudy
Mostly cloudy
 Wind from WSW
Wind: WSW 13 mph , 20 km/h
Temperature: 9°C
Wind Chill: 6°C
Dew Point: 7°C
Humidity: 87%
Barometer: 989 hPa
Clouds: Mostly cloudy
Visibility: 6 miles , 10 km
Cloud details: Few Clouds 2500 ft
Partly cloudy 3000 ft
Mostly cloudy 5000 ft
2019/12/06 12:19 EGQS 061219Z 25011KT 9999 FEW025 SCT030 BKN050 09/07 Q0989 NOSIG RMK BLU BLU
EGPE - Inverness
Distance from station: WNW 73mi, 117km
Updated: 06/12/2019 12:20
Nearby showers, Partly cloudy
Nearby showers, Partly cloudy
 Wind from SW
Wind: SW 12 mph , 19 km/h
Temperature: 9°C
Wind Chill: 6°C
Dew Point: 7°C
Humidity: 87%
Barometer: 990 hPa
Summary: Nearby Showers
Clouds: Partly cloudy
Visibility: 6 miles , 10 km
Cloud details: Few Clouds 1800 ft
Partly cloudy 3800 ft
2019/12/06 12:20 EGPE 061220Z 23010KT 9999 VCSH FEW018 SCT038 09/07 Q0990
 
EGPH - Edinburgh
Distance from station: SSW 77mi, 125km
Updated: 06/12/2019 12:20
Mostly cloudy
Mostly cloudy
 Wind from WSW
Wind: WSW 14 mph , 22 km/h
Temperature: 10°C
Wind Chill: 7°C
Dew Point: 8°C
Humidity: 88%
Barometer: 992 hPa
Clouds: Mostly cloudy
Visibility: 6 miles , 10 km
Cloud details: Partly cloudy 1500 ft
Mostly cloudy 3600 ft
2019/12/06 12:20 EGPH 061220Z 25012KT 9999 SCT015 BKN036 10/08 Q0992
EGPC - Wick
Distance from station: NNW 107mi, 172km
Updated: 06/12/2019 12:20
Nearby showers, Partly cloudy
Nearby showers, Partly cloudy
 Wind from NW
Wind: NW 8 mph , 13 km/h
Temperature: 8°C
Wind Chill: 6°C
Dew Point: 7°C
Humidity: 93%
Barometer: 988 hPa
Summary: Nearby Showers
Clouds: Partly cloudy
Visibility: 6 miles , 10 km
Cloud details: Few Clouds 800 ft
Partly cloudy 1100 ft
2019/12/06 12:20 EGPC 061220Z 31007KT 9999 VCSH FEW008 SCT011 08/07 Q0988
 
EGPF - Glasgow
Distance from station: SW 107mi, 172km
Updated: 06/12/2019 12:20
Light rain, Thunderstorm
Light rain, Thunderstorm
 Wind from WSW
Wind: WSW 8 mph , 13 km/h
Temperature: 9°C
Wind Chill: 7°C
Dew Point: 7°C
Humidity: 87%
Barometer: 993 hPa
Summary: Light rain
Clouds: Thunderstorm
Visibility: 6 miles , 10 km
Cloud details: Mostly cloudy 3400 ft
Mostly cloudy 4200 ft
2019/12/06 12:20 EGPF 061220Z AUTO 25007KT 9999 -RA BKN034/// BKN042/// //////CB 09/07 Q0993
EGPK - Prestwick
Distance from station: SW 130mi, 209km
Updated: 06/12/2019 12:20
Mostly cloudy
Mostly cloudy
 Wind from WSW
Wind: WSW 17 mph , 28 km/h
Temperature: 10°C
Wind Chill: 7°C
Dew Point: 8°C
Humidity: 88%
Barometer: 994 hPa
Clouds: Mostly cloudy
Visibility: 6 miles , 10 km
Cloud details: Few Clouds 800 ft
Partly cloudy 1600 ft
Mostly cloudy 2400 ft
2019/12/06 12:20 EGPK 061220Z 24015KT 9999 FEW008 SCT016 BKN024 10/08 Q0994
 
EGPA - Kirkwall, Orkney
Distance from station: N 140mi, 225km
Updated: 06/12/2019 12:20
Light rain, Drizzle, Mostly cloudy
Light rain, Drizzle, Mostly cloudy
 Wind from NNE
Wind: NNE 7 mph , 11 km/h
Temperature: 7°C
Wind Chill: 5°C
Dew Point: 7°C
Humidity: 100%
Barometer: 988 hPa
Summary: Light rain, Drizzle
Clouds: Mostly cloudy
Visibility: 5 miles , 8 km
Cloud details: Few Clouds 200 ft
Partly cloudy 300 ft
Mostly cloudy 500 ft
2019/12/06 12:20 EGPA 061220Z 02006KT 8000 -RADZ FEW002 SCT003 BKN005 07/07 Q0988
EGPO - Stornoway, Outer Hebrides
Distance from station: WNW 169mi, 273km
Updated: 06/12/2019 12:20
Nearby showers, Mostly cloudy
Nearby showers, Mostly cloudy
 Wind from W
Wind: W 10 mph , 17 km/h
Temperature: 9°C
Wind Chill: 7°C
Dew Point: 8°C
Humidity: 94%
Barometer: 989 hPa
Summary: Nearby Showers
Clouds: Mostly cloudy
Visibility: 6 miles , 10 km
Cloud details: Few Clouds 800 ft
Mostly cloudy 2400 ft
2019/12/06 12:20 EGPO 061220Z 26009KT 9999 9000N VCSH FEW008 BKN024 09/08 Q0989
 
EGPI - Islay, Inner Hebrides
Distance from station: WSW 172mi, 276km
Updated: 06/12/2019 12:20
Partly cloudy
Partly cloudy
 Wind from WNW
Wind: WNW 15 mph , 24 km/h
Temperature: 10°C
Wind Chill: 7°C
Dew Point: 9°C
Humidity: 94%
Barometer: 995 hPa
Clouds: Partly cloudy
Visibility: 6 miles , 10 km
Cloud details: Few Clouds 700 ft
Partly cloudy 2000 ft
2019/12/06 12:20 EGPI 061220Z 29013KT 9999 FEW007 SCT020 10/09 Q0995
EGPU - Tiree, Inner Hebrides
Distance from station: W 172mi, 276km
Updated: 06/12/2019 12:20
Partly cloudy
Partly cloudy
 Wind from WNW
Wind: WNW 20 mph , 31 km/h
Temperature: 10°C
Wind Chill: 7°C
Dew Point: 8°C
Humidity: 88%
Barometer: 994 hPa
Clouds: Partly cloudy
Visibility: 6 miles , 10 km
Cloud details: Few Clouds 1400 ft
Partly cloudy 2500 ft
2019/12/06 12:20 EGPU 061220Z 30017KT 9999 FEW014 SCT025CB 10/08 Q0994
 
EGPB - Sumburgh, Shetland
Distance from station: NNE 208mi, 332km
Updated: 06/12/2019 12:20
Mostly cloudy
Mostly cloudy
 Wind from calm
Wind: Calm
Temperature: 6°C
Dew Point: 5°C
Humidity: 93%
Barometer: 988 hPa
Clouds: Mostly cloudy
Visibility: 6 miles , 10 km
Cloud details: Partly cloudy 1500 ft
Mostly cloudy 2800 ft
2019/12/06 12:20 EGPB 061220Z 00000KT 9999 SCT015 BKN028 06/05 Q0988
EGPM - Scatsa, Shetland
Distance from station: NNE 245mi, 392km
Updated: 06/12/2019 12:20
Few Clouds
Few Clouds
 Wind from SW
Wind: SW 7 mph , 11 km/h
Temperature: 5°C
Wind Chill: 2°C
Dew Point: 4°C
Humidity: 93%
Barometer: 988 hPa
Clouds: Few Clouds
Visibility: 6 miles , 10 km
Cloud details: Few Clouds 1600 ft
2019/12/06 12:20 EGPM 061220Z 23006KT 9999 FEW016 05/04 Q0988 NOSIG
-->